Time;durP1;ratioP1;P1;durP2;ratioP2;P2;SDS_P1;SDS_P2;PMS_P1;PMS_P2;Temp;Humidity;BMP_temperature;BMP_pressure;BME280_temperature;BME280_humidity;BME280_pressure;Samples;Min_cycle;Max_cycle;Signal;HPM_P1;HPM_P2
2022/07/21 00:02:00;;;;;;;12.32;6.28;;;21.50;99.90;;;;;;5010420;28;20045;-73
2022/07/21 00:04:26;;;;;;;16.38;7.38;;;;;;;;;;5006265;28;20026;-73
2022/07/21 00:06:52;;;;;;;13.45;7.03;;;;;;;;;;5007429;28;20029;-73
2022/07/21 00:09:18;;;;;;;20.00;7.88;;;;;;;;;;5008684;28;20100;-75
2022/07/21 00:11:44;;;;;;;17.95;7.07;;;;;;;;;;4992208;28;20470;-82
2022/07/21 00:14:10;;;;;;;12.02;6.50;;;;;;;;;;5009534;28;20488;-72
2022/07/21 00:16:37;;;;;;;17.05;7.57;;;;;;;;;;5010628;28;20137;-83
2022/07/21 00:19:03;;;;;;;18.50;7.22;;;;;;;;;;5010186;28;20156;-74
2022/07/21 00:21:29;;;;;;;16.02;7.20;;;;;;;;;;4993941;28;20084;-71
2022/07/21 00:23:55;;;;;;;13.82;7.05;;;;;;;;;;5008562;28;20045;-72
2022/07/21 00:26:22;;;;;;;13.60;8.40;;;21.10;99.90;;;;;;5021911;28;20108;-72
2022/07/21 00:28:48;;;;;;;21.52;8.30;;;;;;;;;;5010467;28;20176;-72
2022/07/21 00:31:14;;;;;;;16.33;8.70;;;21.10;99.90;;;;;;5022916;28;20037;-72
2022/07/21 00:33:40;;;;;;;16.48;8.82;;;;;;;;;;4991538;28;20041;-75
2022/07/21 00:36:06;;;;;;;14.73;8.75;;;;;;;;;;4991740;28;20033;-73
2022/07/21 00:38:32;;;;;;;14.10;9.07;;;;;;;;;;5010432;28;20070;-71
2022/07/21 00:40:58;;;;;;;14.82;8.60;;;;;;;;;;5004514;28;20035;-79
2022/07/21 00:43:26;;;;;;;15.15;10.45;;;;;;;;;;4999811;28;20121;-73
2022/07/21 00:45:56;;;;;;;15.93;9.40;;;;;;;;;;5005471;28;20113;-72
2022/07/21 00:48:22;;;;;;;20.08;9.52;;;;;;;;;;5002931;28;20034;-71
2022/07/21 00:50:48;;;;;;;18.10;8.75;;;20.80;99.90;;;;;;5001918;28;20053;-78
2022/07/21 00:53:14;;;;;;;21.13;9.68;;;;;;;;;;5004555;28;20127;-79
2022/07/21 00:55:43;;;;;;;14.77;9.38;;;;;;;;;;5004272;28;20034;-72
2022/07/21 00:58:09;;;;;;;17.73;10.25;;;;;;;;;;5002680;28;20469;-73
2022/07/21 01:00:35;;;;;;;24.67;10.05;;;;;;;;;;5003057;28;20042;-72
2022/07/21 01:03:02;;;;;;;15.45;9.65;;;;;;;;;;5001298;28;20086;-79
2022/07/21 01:05:28;;;;;;;18.25;9.60;;;;;;;;;;5000952;28;20041;-73
2022/07/21 01:07:55;;;;;;;17.95;10.85;;;20.60;99.90;;;;;;5005654;28;20042;-72
2022/07/21 01:10:23;;;;;;;14.35;9.40;;;20.60;99.90;;;;;;5001879;28;20037;-73
2022/07/21 01:12:49;;;;;;;17.13;9.77;;;;;;;;;;5003007;28;20041;-75
2022/07/21 01:15:16;;;;;;;18.27;9.68;;;;;;;;;;5001861;28;20030;-71
2022/07/21 01:17:43;;;;;;;20.95;10.85;;;;;;;;;;4995666;28;20489;-78
2022/07/21 01:20:10;;;;;;;17.35;10.80;;;;;;;;;;5004167;28;20029;-71
2022/07/21 01:22:37;;;;;;;13.45;9.77;;;;;;;;;;5003678;28;20034;-74
2022/07/21 01:25:04;;;;;;;17.42;11.02;;;;;;;;;;5006834;28;20296;-71
2022/07/21 01:27:30;;;;;;;17.15;12.45;;;;;;;;;;5002247;28;20041;-71
2022/07/21 01:29:56;;;;;;;21.35;12.05;;;;;;;;;;5005438;28;20054;-72
2022/07/21 01:32:22;;;;;;;18.63;11.27;;;;;;;;;;5002737;28;20043;-81
2022/07/21 01:34:48;;;;;;;14.82;12.05;;;;;;;;;;5004737;28;20045;-74
2022/07/21 01:37:15;;;;;;;15.75;10.98;;;;;;;;;;5002511;28;20053;-71
2022/07/21 01:42:25;;;;;;;19.63;12.48;;;;;;;;;;4990112;28;20037;-71
2022/07/21 01:44:52;;;;;;;19.23;11.43;;;;;;;;;;5001926;28;20135;-78
2022/07/21 01:47:20;;;;;;;18.15;12.02;;;;;;;;;;5001701;28;20029;-77
2022/07/21 01:49:46;;;;;;;15.65;10.73;;;;;;;;;;5002884;28;20470;-73
2022/07/21 01:52:12;;;;;;;16.95;12.25;;;;;;;;;;5003540;28;20113;-75
2022/07/21 01:54:38;;;;;;;22.08;12.43;;;;;;;;;;5001892;28;20088;-78
2022/07/21 01:57:04;;;;;;;21.98;13.05;;;;;;;;;;5003220;28;20038;-71
2022/07/21 01:59:30;;;;;;;16.55;12.57;;;;;;;;;;5004580;28;20037;-71
2022/07/21 02:01:56;;;;;;;22.60;14.38;;;;;;;;;;5009476;28;20033;-71
2022/07/21 02:04:22;;;;;;;17.67;11.88;;;;;;;;;;5005976;28;20034;-78
2022/07/21 02:06:48;;;;;;;16.67;11.50;;;;;;;;;;5008619;28;20044;-75
2022/07/21 02:09:14;;;;;;;19.60;12.77;;;;;;;;;;5008541;28;20030;-78
2022/07/21 02:11:40;;;;;;;22.10;13.82;;;;;;;;;;5005010;28;20825;-72
2022/07/21 02:14:06;;;;;;;20.92;14.15;;;;;;;;;;5006972;28;20385;-72
2022/07/21 02:16:32;;;;;;;18.65;12.25;;;;;;;;;;4991395;28;20026;-75
2022/07/21 02:18:58;;;;;;;20.55;13.50;;;;;;;;;;5004976;28;20034;-72
2022/07/21 02:21:24;;;;;;;18.52;13.05;;;;;;;;;;5002654;28;20042;-71
2022/07/21 02:23:50;;;;;;;21.73;13.35;;;;;;;;;;5006097;28;20105;-73
2022/07/21 02:26:16;;;;;;;22.13;14.52;;;;;;;;;;5006150;28;20106;-78
2022/07/21 02:28:42;;;;;;;27.42;14.32;;;;;;;;;;5005253;28;20572;-77
2022/07/21 02:31:08;;;;;;;17.92;13.40;;;;;;;;;;5022618;28;20030;-71
2022/07/21 02:33:34;;;;;;;20.60;13.65;;;;;;;;;;5011941;28;20159;-71
2022/07/21 02:36:00;;;;;;;18.23;13.43;;;;;;;;;;5023459;28;20126;-78
2022/07/21 02:38:26;;;;;;;17.10;13.15;;;;;;;;;;5030325;28;20041;-71
2022/07/21 02:40:52;;;;;;;22.83;15.27;;;;;;;;;;5020052;28;20045;-75
2022/07/21 02:43:18;;;;;;;16.30;13.30;;;;;;;;;;5017404;28;20034;-72
2022/07/21 02:45:44;;;;;;;18.42;13.77;;;;;;;;;;5014371;28;20507;-70
2022/07/21 02:48:12;;;;;;;19.20;13.80;;;;;;;;;;5017615;28;20064;-70
2022/07/21 02:50:39;;;;;;;20.58;14.98;;;;;;;;;;5014318;28;20033;-75
2022/07/21 02:53:07;;;;;;;19.00;13.50;;;;;;;;;;5000957;28;20473;-70
2022/07/21 02:55:34;;;;;;;17.40;14.27;;;;;;;;;;5017311;28;20041;-71
2022/07/21 02:58:29;;;;;;;20.42;15.07;;;;;;;;;;5018704;28;20040;-70
2022/07/21 03:01:06;;;;;;;22.25;14.80;;;;;;;;;;5011735;28;20042;-70
2022/07/21 03:03:34;;;;;;;22.67;15.20;;;;;;;;;;5016980;28;20087;-72
2022/07/21 03:06:00;;;;;;;19.33;15.57;;;;;;;;;;5007531;28;20406;-72
2022/07/21 03:08:27;;;;;;;16.52;13.88;;;;;;;;;;5002995;28;20106;-72
2022/07/21 03:10:53;;;;;;;24.38;16.17;;;;;;;;;;5010469;28;20426;-70
2022/07/21 03:13:19;;;;;;;21.65;15.52;;;;;;;;;;5013538;28;20385;-70
2022/07/21 03:15:45;;;;;;;19.77;15.25;;;;;;;;;;5012914;28;20037;-75
2022/07/21 03:18:11;;;;;;;23.83;16.83;;;;;;;;;;5015631;28;20036;-70
2022/07/21 03:20:39;;;;;;;21.27;15.40;;;;;;;;;;5013492;28;20133;-70
2022/07/21 03:23:05;;;;;;;25.33;17.27;;;;;;;;;;4999186;28;20034;-71
2022/07/21 03:25:31;;;;;;;20.30;15.65;;;;;;;;;;5008722;28;20108;-68
2022/07/21 03:27:57;;;;;;;22.60;16.88;;;;;;;;;;5004639;28;20367;-72
2022/07/21 03:30:24;;;;;;;23.45;16.45;;;;;;;;;;5011324;28;20161;-73
2022/07/21 03:32:51;;;;;;;21.70;17.17;;;;;;;;;;5015504;28;20037;-70
2022/07/21 03:35:18;;;;;;;24.05;17.60;;;;;;;;;;5022181;28;20041;-71
2022/07/21 03:37:45;;;;;;;19.50;16.98;;;;;;;;;;5023082;28;20035;-70
2022/07/21 03:40:13;;;;;;;19.80;16.08;;;;;;;;;;5008314;28;20129;-72
2022/07/21 03:42:39;;;;;;;21.00;17.38;;;;;;;;;;5018470;28;20032;-70
2022/07/21 03:45:05;;;;;;;26.58;19.48;;;;;;;;;;5026419;28;20106;-72
2022/07/21 03:47:31;;;;;;;23.27;15.40;;;;;;;;;;5023134;28;20060;-69
2022/07/21 03:49:57;;;;;;;118.82;96.95;;;;;;;;;;5018955;28;20132;-75
2022/07/21 03:52:23;;;;;;;26.63;18.20;;;;;;;;;;5018673;28;20056;-69
2022/07/21 03:54:49;;;;;;;23.63;18.92;;;;;;;;;;5024720;28;20037;-70
2022/07/21 03:57:15;;;;;;;18.92;16.42;;;;;;;;;;5031662;28;20437;-69
2022/07/21 03:59:41;;;;;;;22.92;15.85;;;;;;;;;;5017593;28;20120;-80
2022/07/21 04:02:07;;;;;;;19.30;15.13;;;;;;;;;;5023817;28;20037;-71
2022/07/21 04:04:33;;;;;;;20.60;14.85;;;;;;;;;;5028366;28;20029;-70
2022/07/21 04:06:59;;;;;;;17.42;14.23;;;;;;;;;;5032069;28;20104;-75
2022/07/21 04:09:25;;;;;;;19.27;14.73;;;;;;;;;;5029474;28;20528;-70
2022/07/21 04:11:51;;;;;;;19.08;14.65;;;;;;;;;;5030189;28;20116;-71
2022/07/21 04:14:17;;;;;;;18.70;15.05;;;;;;;;;;5027587;28;20044;-69
2022/07/21 04:16:43;;;;;;;16.65;13.80;;;;;;;;;;5034841;28;20099;-71
2022/07/21 04:19:09;;;;;;;21.85;16.10;;;;;;;;;;5046654;28;20044;-74
2022/07/21 04:21:35;;;;;;;20.70;16.30;;;;;;;;;;5027698;28;20420;-70
2022/07/21 04:24:01;;;;;;;20.30;15.27;;;;;;;;;;5020057;28;20033;-75
2022/07/21 04:26:27;;;;;;;17.67;15.75;;;;;;;;;;5042803;28;20061;-70
2022/07/21 04:28:54;;;;;;;20.58;16.02;;;19.70;99.90;;;;;;5044934;28;20037;-70
2022/07/21 04:31:20;;;;;;;18.20;14.65;;;;;;;;;;5021915;28;20041;-70
2022/07/21 04:33:46;;;;;;;21.00;15.40;;;;;;;;;;5023308;28;20029;-70
2022/07/21 04:36:12;;;;;;;21.73;15.38;;;;;;;;;;5021882;28;20034;-70
2022/07/21 04:38:38;;;;;;;18.48;15.40;;;;;;;;;;5024781;28;20041;-71
2022/07/21 04:41:04;;;;;;;21.52;15.23;;;;;;;;;;5023321;28;20462;-70
2022/07/21 04:43:30;;;;;;;18.25;14.68;;;;;;;;;;5022939;28;20021;-72
2022/07/21 04:45:56;;;;;;;20.42;16.20;;;;;;;;;;5015218;28;20049;-70
2022/07/21 04:48:22;;;;;;;21.13;15.48;;;;;;;;;;5018811;28;20030;-70
2022/07/21 04:50:48;;;;;;;22.23;16.35;;;;;;;;;;5014416;28;20104;-69
2022/07/21 04:53:14;;;;;;;20.73;16.70;;;;;;;;;;5021158;28;20033;-69
2022/07/21 04:55:40;;;;;;;22.35;16.83;;;;;;;;;;5023141;28;20033;-70
2022/07/21 04:58:06;;;;;;;20.10;16.15;;;;;;;;;;5019353;28;20038;-71
2022/07/21 05:00:32;;;;;;;24.90;18.35;;;;;;;;;;5023303;28;20103;-70
2022/07/21 05:02:58;;;;;;;38.22;18.17;;;;;;;;;;5003851;28;20470;-69
2022/07/21 05:05:24;;;;;;;25.88;18.23;;;;;;;;;;5026288;28;20077;-70
2022/07/21 05:07:50;;;;;;;21.60;17.50;;;;;;;;;;5026257;28;20037;-71
2022/07/21 05:10:18;;;;;;;27.17;19.02;;;19.60;99.90;;;;;;5024764;28;20507;-70
2022/07/21 05:12:44;;;;;;;23.83;18.58;;;;;;;;;;5004848;28;20041;-74
2022/07/21 05:15:11;;;;;;;29.17;20.02;;;;;;;;;;5020032;28;20072;-71
2022/07/21 05:17:37;;;;;;;24.20;17.75;;;;;;;;;;5024268;28;20033;-71
2022/07/21 05:20:04;;;;;;;24.70;18.85;;;;;;;;;;5015915;28;20041;-76
2022/07/21 05:22:30;;;;;;;22.00;18.48;;;;;;;;;;5020249;28;20182;-75
2022/07/21 05:24:56;;;;;;;23.23;17.85;;;;;;;;;;5017586;28;20107;-72
2022/07/21 05:27:22;;;;;;;23.30;18.45;;;;;;;;;;5007948;28;20060;-71
2022/07/21 05:29:48;;;;;;;19.35;17.17;;;;;;;;;;5030464;28;20049;-69
2022/07/21 05:32:15;;;;;;;23.15;17.45;;;;;;;;;;5045643;28;20056;-70
2022/07/21 05:34:41;;;;;;;19.80;15.27;;;;;;;;;;5043918;28;20032;-72
2022/07/21 05:37:07;;;;;;;22.20;18.38;;;;;;;;;;5051484;28;20028;-69
2022/07/21 05:39:33;;;;;;;23.08;17.15;;;;;;;;;;5048007;28;20078;-70
2022/07/21 05:41:59;;;;;;;21.27;16.80;;;;;;;;;;5047361;28;20561;-69
2022/07/21 05:44:25;;;;;;;19.55;17.02;;;;;;;;;;5051467;28;20374;-69
2022/07/21 05:46:52;;;;;;;22.67;17.40;;;;;;;;;;5044336;28;20032;-71
2022/07/21 05:49:18;;;;;;;21.40;16.70;;;;;;;;;;5020997;28;20615;-70
2022/07/21 05:51:44;;;;;;;20.27;17.30;;;;;;;;;;5053642;28;20029;-69
2022/07/21 05:54:11;;;;;;;19.17;16.17;;;;;;;;;;5049730;28;20033;-69
2022/07/21 05:56:37;;;;;;;22.35;17.70;;;;;;;;;;5051005;28;20121;-70
2022/07/21 05:59:03;;;;;;;24.80;18.20;;;;;;;;;;5047447;28;20040;-71
2022/07/21 06:01:29;;;;;;;20.75;17.30;;;;;;;;;;5063391;28;20384;-75
2022/07/21 06:03:55;;;;;;;27.10;18.60;;;;;;;;;;5049854;28;20051;-75
2022/07/21 06:06:23;;;;;;;22.27;18.50;;;;;;;;;;5054817;28;20033;-74
2022/07/21 06:08:49;;;;;;;21.48;17.80;;;19.90;99.90;;;;;;5051161;28;21322;-71
2022/07/21 06:11:19;;;;;;;22.73;17.10;;;19.90;99.90;;;;;;5047266;28;20041;-71
2022/07/21 06:13:46;;;;;;;21.02;17.35;;;;;;;;;;5042929;28;20495;-71
2022/07/21 06:16:12;;;;;;;21.58;17.23;;;;;;;;;;5056303;28;20488;-71
2022/07/21 06:18:38;;;;;;;21.30;17.65;;;;;;;;;;5053641;28;20060;-72
2022/07/21 06:21:05;;;;;;;22.00;17.52;;;;;;;;;;5041594;28;20064;-70
2022/07/21 06:23:31;;;;;;;22.60;17.63;;;;;;;;;;5050799;28;20036;-70
2022/07/21 06:25:57;;;;;;;21.85;17.40;;;;;;;;;;5044948;28;20033;-70
2022/07/21 06:28:23;;;;;;;22.52;17.60;;;;;;;;;;5016456;28;20528;-70
2022/07/21 06:30:49;;;;;;;21.13;17.55;;;;;;;;;;5052644;28;20096;-71
2022/07/21 06:33:16;;;;;;;19.38;17.30;;;;;;;;;;5039829;28;20036;-71
2022/07/21 06:35:42;;;;;;;20.13;16.65;;;;;;;;;;5032491;28;20029;-70
2022/07/21 06:38:08;;;;;;;22.17;17.33;;;;;;;;;;5051615;28;20032;-72
2022/07/21 06:40:34;;;;;;;24.15;18.05;;;;;;;;;;5052654;28;20514;-71
2022/07/21 06:43:00;;;;;;;22.45;17.85;;;;;;;;;;5052165;28;20059;-71
2022/07/21 06:45:26;;;;;;;19.20;17.20;;;;;;;;;;5051135;28;20053;-73
2022/07/21 06:47:59;;;;;;;21.65;18.23;;;;;;;;;;5052676;28;20036;-71
2022/07/21 06:50:25;;;;;;;24.30;18.30;;;;;;;;;;5060665;28;20116;-72
2022/07/21 06:52:51;;;;;;;21.58;19.15;;;;;;;;;;5052510;28;20129;-71
2022/07/21 06:55:18;;;;;;;22.23;17.90;;;;;;;;;;5047416;28;20037;-71
2022/07/21 06:57:44;;;;;;;20.48;18.33;;;;;;;;;;5051040;28;20048;-72
2022/07/21 07:00:10;;;;;;;28.10;17.58;;;;;;;;;;5049522;28;20492;-71
2022/07/21 07:02:36;;;;;;;23.35;18.08;;;;;;;;;;5041105;28;20642;-72
2022/07/21 07:05:03;;;;;;;20.60;18.13;;;;;;;;;;5047669;28;20138;-71
2022/07/21 07:07:30;;;;;;;21.88;18.45;;;;;;;;;;5051494;28;20492;-77
2022/07/21 07:09:56;;;;;;;24.20;19.77;;;;;;;;;;5047483;28;20037;-71
2022/07/21 07:12:22;;;;;;;19.98;17.48;;;;;;;;;;5052376;28;20056;-71
2022/07/21 07:14:48;;;;;;;28.30;20.10;;;;;;;;;;5051261;28;20053;-72
2022/07/21 07:17:18;;;;;;;25.23;19.95;;;20.80;99.90;;;;;;5049076;28;20086;-71
2022/07/21 07:19:45;;;;;;;25.88;20.40;;;;;;;;;;5051153;28;20107;-70
2022/07/21 07:22:11;;;;;;;23.42;20.92;;;;;;;;;;5042412;28;20030;-70
2022/07/21 07:24:37;;;;;;;24.88;20.98;;;;;;;;;;5042659;28;20056;-72
2022/07/21 07:27:03;;;;;;;23.30;19.88;;;;;;;;;;5043431;28;20032;-71
2022/07/21 07:29:30;;;;;;;25.30;21.45;;;;;;;;;;5043507;28;20051;-73
2022/07/21 07:31:56;;;;;;;24.20;19.92;;;;;;;;;;5047504;28;20051;-72
2022/07/21 07:34:22;;;;;;;23.60;19.90;;;;;;;;;;5051389;28;20040;-71
2022/07/21 07:36:48;;;;;;;24.30;20.92;;;;;;;;;;5036129;28;20469;-70
2022/07/21 07:39:15;;;;;;;26.77;21.13;;;;;;;;;;5036223;28;20039;-70
2022/07/21 07:41:42;;;;;;;21.55;19.33;;;;;;;;;;5054210;28;20029;-70
2022/07/21 07:44:08;;;;;;;29.58;21.95;;;;;;;;;;5048020;28;20041;-73
2022/07/21 07:46:34;;;;;;;26.38;20.77;;;;;;;;;;5047176;28;20021;-70
2022/07/21 07:49:00;;;;;;;24.38;21.35;;;;;;;;;;5051102;28;20108;-71
2022/07/21 07:51:26;;;;;;;26.10;22.08;;;;;;;;;;5039819;28;20434;-73
2022/07/21 07:53:52;;;;;;;28.42;21.27;;;;;;;;;;5040528;28;20056;-75
2022/07/21 07:56:18;;;;;;;24.85;21.65;;;;;;;;;;5047912;28;20047;-71
2022/07/21 07:58:44;;;;;;;24.38;21.80;;;;;;;;;;5056698;28;20357;-70
2022/07/21 08:01:10;;;;;;;23.52;19.95;;;;;;;;;;5050618;28;20144;-70
2022/07/21 08:03:36;;;;;;;27.88;21.83;;;;;;;;;;5046965;28;20033;-70
2022/07/21 08:06:03;;;;;;;31.63;21.55;;;;;;;;;;5026996;28;20124;-71
2022/07/21 08:08:32;;;;;;;27.17;24.27;;;;;;;;;;5039856;28;20029;-74
2022/07/21 08:10:58;;;;;;;27.08;22.52;;;;;;;;;;5049135;28;20025;-72
2022/07/21 08:13:25;;;;;;;25.58;21.73;;;;;;;;;;5036050;28;20056;-74
2022/07/21 08:15:51;;;;;;;28.00;20.77;;;;;;;;;;5049537;28;20025;-74
2022/07/21 08:18:17;;;;;;;27.92;23.00;;;;;;;;;;5027887;28;20036;-78
2022/07/21 08:20:44;;;;;;;29.73;25.40;;;;;;;;;;5030836;28;20092;-73
2022/07/21 08:23:10;;;;;;;32.53;25.52;;;;;;;;;;5032188;28;20027;-78
2022/07/21 08:25:36;;;;;;;34.13;27.30;;;;;;;;;;5049390;28;20121;-74
2022/07/21 08:28:02;;;;;;;38.15;28.83;;;;;;;;;;5045008;28;20104;-73
2022/07/21 08:30:28;;;;;;;38.83;29.33;;;;;;;;;;5042921;28;20060;-70
2022/07/21 08:32:54;;;;;;;38.53;30.20;;;;;;;;;;5060630;28;20060;-70
2022/07/21 08:35:20;;;;;;;38.63;31.80;;;;;;;;;;5044664;28;20061;-70
2022/07/21 08:37:54;;;;;;;40.33;31.98;;;;;;;;;;5048364;28;20025;-71
2022/07/21 08:40:22;;;;;;;41.80;32.72;;;;;;;;;;5049335;28;20033;-71
2022/07/21 08:42:49;;;;;;;40.58;34.50;;;;;;;;;;5050754;28;20069;-71
2022/07/21 08:45:15;;;;;;;45.42;35.28;;;;;;;;;;5048820;28;20036;-72
2022/07/21 08:47:41;;;;;;;41.83;32.13;;;;;;;;;;5031500;28;20392;-73
2022/07/21 08:50:08;;;;;;;42.42;35.80;;;;;;;;;;5046379;28;20037;-69
2022/07/21 08:52:34;;;;;;;41.70;34.80;;;;;;;;;;5045882;28;20071;-72
2022/07/21 08:55:01;;;;;;;40.70;34.33;;;;;;;;;;5047668;28;20056;-71
2022/07/21 08:57:27;;;;;;;42.40;35.33;;;;;;;;;;5043851;28;20040;-70
2022/07/21 08:59:53;;;;;;;47.38;36.40;;;;;;;;;;5045790;28;20029;-71
2022/07/21 09:02:33;;;;;;;46.10;38.35;;;;;;;;;;5046040;28;20029;-72
2022/07/21 09:04:59;;;;;;;53.05;38.70;;;;;;;;;;5042062;28;20025;-71
2022/07/21 09:07:25;;;;;;;44.40;35.78;;;;;;;;;;5050582;28;20104;-71
2022/07/21 09:09:56;;;;;;;46.75;37.97;;;;;;;;;;5042983;28;20024;-71
2022/07/21 09:12:22;;;;;;;51.83;39.00;;;;;;;;;;5045222;28;20025;-71
2022/07/21 09:14:49;;;;;;;47.85;39.60;;;;;;;;;;5039701;28;20033;-71
2022/07/21 09:17:16;;;;;;;50.25;38.83;;;;;;;;;;5026084;28;20057;-69
2022/07/21 09:19:45;;;;;;;48.55;38.28;;;;;;;;;;5048707;28;20040;-71
2022/07/21 09:22:18;;;;;;;47.05;37.63;;;;;;;;;;5042369;28;20022;-70
2022/07/21 09:24:48;;;;;;;49.47;40.08;;;;;;;;;;5044784;28;20045;-70
2022/07/21 09:27:15;;;;;;;51.88;40.03;;;;;;;;;;5041657;28;20037;-72
2022/07/21 09:29:42;;;;;;;48.83;38.92;;;;;;;;;;5023289;28;20143;-75
2022/07/21 09:32:16;;;;;;;48.70;38.22;;;;;;;;;;5029980;28;20029;-73
2022/07/21 09:34:42;;;;;;;50.53;38.70;;;;;;;;;;5030647;28;20112;-72
2022/07/21 09:37:08;;;;;;;46.40;37.78;;;;;;;;;;5017261;28;20038;-71
2022/07/21 09:39:41;;;;;;;55.15;39.20;;;;;;;;;;5022207;28;20037;-72
2022/07/21 09:42:14;;;;;;;52.92;39.63;;;;;;;;;;5027936;28;20040;-73
2022/07/21 09:44:51;;;;;;;49.00;40.85;;;;;;;;;;5025381;28;20062;-71
2022/07/21 09:47:18;;;;;;;52.78;41.28;;;;;;;;;;5031080;28;20033;-72
2022/07/21 09:49:44;;;;;;;48.20;38.80;;;;;;;;;;5024681;28;20037;-71
2022/07/21 09:52:24;;;;;;;44.47;35.03;;;20.50;99.90;;;;;;5047038;28;20033;-70
2022/07/21 09:54:52;;;;;;;41.72;33.30;;;20.50;99.90;;;;;;5031840;28;20037;-72
2022/07/21 09:57:18;;;;;;;36.10;30.13;;;;;;;;;;5019373;28;20639;-72
2022/07/21 09:59:45;;;;;;;37.42;30.20;;;;;;;;;;5025304;28;20048;-74
2022/07/21 10:02:16;;;;;;;33.38;28.90;;;20.70;99.90;;;;;;5040437;28;20033;-72
2022/07/21 10:04:43;;;;;;;28.23;25.33;;;;;;;;;;5030146;28;20408;-75
2022/07/21 10:07:09;;;;;;;30.67;26.33;;;;;;;;;;5018189;28;20037;-76
2022/07/21 10:09:35;;;;;;;27.92;24.73;;;;;;;;;;5035605;28;20485;-72
2022/07/21 10:12:02;;;;;;;26.17;20.40;;;;;;;;;;5030257;28;20072;-72
2022/07/21 10:14:28;;;;;;;27.73;21.85;;;;;;;;;;5025808;28;20044;-71
2022/07/21 10:16:54;;;;;;;22.33;18.90;;;;;;;;;;5027474;28;20037;-72
2022/07/21 10:19:23;;;;;;;20.60;17.63;;;;;;;;;;5029575;28;20057;-72
2022/07/21 10:21:52;;;;;;;19.25;16.67;;;;;;;;;;5037152;28;20021;-72
2022/07/21 10:24:19;;;;;;;19.38;16.98;;;;;;;;;;5048351;28;20033;-77
2022/07/21 10:27:05;;;;;;;20.88;16.58;;;;;;;;;;5030427;28;20032;-71
2022/07/21 10:29:49;;;;;;;17.27;15.48;;;;;;;;;;5046529;28;20196;-76
2022/07/21 10:32:41;;;;;;;17.65;15.82;;;;;;;;;;5029372;28;20028;-77
2022/07/21 10:35:07;;;;;;;;;;;;;;;;;;5015288;28;20045;-72
2022/07/21 10:37:39;;;;;;;15.02;13.43;;;;;;;;;;5018904;28;19966;-72
2022/07/21 10:40:32;;;;;;;16.92;15.13;;;;;;;;;;5028782;28;20029;-73
2022/07/21 10:43:01;;;;;;;16.08;14.23;;;;;;;;;;5046630;28;20036;-76
2022/07/21 10:45:37;;;;;;;15.70;14.10;;;;;;;;;;5015839;28;20021;-73
2022/07/21 10:48:04;;;;;;;18.00;14.27;;;;;;;;;;5022310;28;20357;-76
2022/07/21 10:50:38;;;;;;;16.33;14.73;;;;;;;;;;5024451;28;20499;-74
2022/07/21 10:53:24;;;;;;;20.10;15.85;;;;;;;;;;5030109;28;20046;-72
2022/07/21 10:55:51;;;;;;;16.83;15.00;;;;;;;;;;5025685;28;20113;-75
2022/07/21 10:58:36;;;;;;;16.70;14.10;;;;;;;;;;5048171;28;20557;-73
2022/07/21 11:01:03;;;;;;;16.55;14.35;;;;;;;;;;5027940;28;20026;-75
2022/07/21 11:03:31;;;;;;;16.42;14.63;;;;;;;;;;5028833;28;20481;-81
2022/07/21 11:06:07;;;;;;;15.73;14.27;;;;;;;;;;5027862;28;20025;-76
2022/07/21 11:08:37;;;;;;;33.42;25.08;;;;;;;;;;5019013;28;20025;-69
2022/07/21 11:11:10;;;;;;;16.38;14.70;;;;;;;;;;5014317;28;20071;-70
2022/07/21 11:13:55;;;;;;;16.15;14.45;;;;;;;;;;5012828;28;20030;-72
2022/07/21 11:16:21;;;;;;;18.00;15.20;;;;;;;;;;5031573;28;20041;-72
2022/07/21 11:18:47;;;;;;;17.00;15.18;;;;;;;;;;5015641;28;20104;-71
2022/07/21 11:21:14;;;;;;;16.00;14.45;;;;;;;;;;5015460;28;20026;-76
2022/07/21 11:23:40;;;;;;;16.05;12.98;;;;;;;;;;5013761;28;20418;-71
2022/07/21 11:26:07;;;;;;;18.33;13.05;;;;;;;;;;5029841;28;20369;-71
2022/07/21 11:28:33;;;;;;;16.92;15.07;;;;;;;;;;5019452;28;20022;-70
2022/07/21 11:31:06;;;;;;;12.93;11.73;;;;;;;;;;5043713;28;20057;-70
2022/07/21 11:33:32;;;;;;;30.45;24.30;;;;;;;;;;5042000;28;20608;-70
2022/07/21 11:35:58;;;;;;;21.92;18.15;;;;;;;;;;5049953;28;20029;-70
2022/07/21 11:38:24;;;;;;;17.38;15.48;;;;;;;;;;5052400;28;20376;-71
2022/07/21 11:40:50;;;;;;;15.68;13.90;;;;;;;;;;5061589;28;20083;-71
2022/07/21 11:43:16;;;;;;;14.75;12.98;;;;;;;;;;5049265;28;20033;-70
2022/07/21 11:45:52;;;;;;;19.23;13.27;;;;;;;;;;5046203;28;20473;-71
2022/07/21 11:48:30;;;;;;;12.77;11.50;;;;;;;;;;5045124;28;20075;-71
2022/07/21 11:51:00;;;;;;;14.88;12.65;;;;;;;;;;5049370;28;20037;-72
2022/07/21 11:53:26;;;;;;;12.57;11.32;;;;;;;;;;5050060;28;20047;-71
2022/07/21 11:55:53;;;;;;;9.80;7.13;;;;;;;;;;5040512;28;20090;-71
2022/07/21 11:58:20;;;;;;;8.95;6.40;;;;;;;;;;5047860;28;20033;-71
2022/07/21 12:00:48;;;;;;;8.63;6.55;;;;;;;;;;5033364;28;20095;-71
2022/07/21 12:03:15;;;;;;;6.85;6.25;;;;;;;;;;5026676;28;20495;-71
2022/07/21 12:05:41;;;;;;;6.20;5.60;;;;;;;;;;5030914;28;20469;-71
2022/07/21 12:08:07;;;;;;;6.88;6.10;;;;;;;;;;5031353;28;20029;-73
2022/07/21 12:10:34;;;;;;;5.95;5.40;;;;;;;;;;5046059;28;20261;-71
2022/07/21 12:13:01;;;;;;;5.78;5.28;;;;;;;;;;5048636;28;20040;-72
2022/07/21 12:15:30;;;;;;;6.85;5.95;;;;;;;;;;5045838;28;20021;-70
2022/07/21 12:17:58;;;;;;;9.23;5.93;;;;;;;;;;5039115;28;20041;-71
2022/07/21 12:20:34;;;;;;;6.55;5.78;;;;;;;;;;5049416;28;20051;-70
2022/07/21 12:23:01;;;;;;;7.32;5.70;;;;;;;;;;5048992;28;20147;-71
2022/07/21 12:25:33;;;;;;;7.25;5.53;;;;;;;;;;5046686;28;20040;-71
2022/07/21 12:27:59;;;;;;;7.53;6.38;;;;;;;;;;5048589;28;20037;-71
2022/07/21 12:30:31;;;;;;;5.35;4.82;;;;;;;;;;5052110;28;20055;-71
2022/07/21 12:33:08;;;;;;;5.85;5.25;;;;;;;;;;5047783;28;20017;-72
2022/07/21 12:35:37;;;;;;;24.48;18.15;;;;;;;;;;5051405;28;20095;-71
2022/07/21 12:38:13;;;;;;;7.38;5.78;;;;;;;;;;5047898;28;20029;-73
2022/07/21 12:40:42;;;;;;;5.63;5.13;;;;;;;;;;5043686;28;20051;-72
2022/07/21 12:43:11;;;;;;;8.18;5.82;;;;;;;;;;5047477;28;20100;-72
2022/07/21 12:45:56;;;;;;;6.82;5.90;;;;;;;;;;5049343;28;20107;-73
2022/07/21 12:48:25;;;;;;;6.05;5.45;;;;;;;;;;5035035;28;20528;-72
2022/07/21 12:51:17;;;;;;;7.13;6.50;;;;;;;;;;5036789;28;20194;-71
2022/07/21 12:53:47;;;;;;;6.70;6.10;;;;;;;;;;5017059;28;20036;-70
2022/07/21 12:56:21;;;;;;;7.85;7.15;;;;;;;;;;5047329;28;20039;-70
2022/07/21 12:58:48;;;;;;;8.00;7.20;;;;;;;;;;5029372;28;20036;-71
2022/07/21 13:01:15;;;;;;;8.20;7.40;;;;;;;;;;5039021;28;20032;-70
2022/07/21 13:03:41;;;;;;;7.72;6.93;;;;;;;;;;5048630;28;20028;-71
2022/07/21 13:06:08;;;;;;;8.02;7.22;;;;;;;;;;5049357;28;20469;-72
2022/07/21 13:08:35;;;;;;;8.70;7.85;;;;;;;;;;5039705;28;20093;-70
2022/07/21 13:11:01;;;;;;;9.18;8.00;;;;;;;;;;5030752;28;20521;-70
2022/07/21 13:13:28;;;;;;;8.27;7.47;;;;;;;;;;5046924;28;20481;-70
2022/07/21 13:15:55;;;;;;;8.68;7.90;;;;;;;;;;5023933;28;20033;-71
2022/07/21 13:18:21;;;;;;;9.05;8.23;;;;;;;;;;5048600;28;20476;-71
2022/07/21 13:20:49;;;;;;;9.20;8.30;;;;;;;;;;5049115;28;20120;-71
2022/07/21 13:23:15;;;;;;;9.50;8.50;;;;;;;;;;5045468;28;20060;-72
2022/07/21 13:25:41;;;;;;;10.20;8.98;;;;;;;;;;5047042;28;20036;-71
2022/07/21 13:28:07;;;;;;;12.52;9.38;;;;;;;;;;5044600;28;20036;-71
2022/07/21 13:30:33;;;;;;;9.10;8.20;;;;;;;;;;5059880;28;20052;-71
2022/07/21 13:32:59;;;;;;;9.20;7.75;;;;;;;;;;5038750;28;20029;-71
2022/07/21 13:35:26;;;;;;;10.65;8.80;;;;;;;;;;5047249;28;20487;-71
2022/07/21 13:37:52;;;;;;;10.00;8.98;;;;;;;;;;5049230;28;20041;-71
2022/07/21 13:40:18;;;;;;;9.38;8.43;;;;;;;;;;5048855;28;20033;-71
2022/07/21 13:42:44;;;;;;;6.22;5.63;;;;;;;;;;5043879;28;20037;-71
2022/07/21 13:45:11;;;;;;;5.82;4.00;;;;;;;;;;5046306;28;20033;-73
2022/07/21 13:47:37;;;;;;;4.90;3.72;;;;;;;;;;5042085;28;20017;-71
2022/07/21 13:50:04;;;;;;;4.95;3.40;;;;;;;;;;5048041;28;20052;-76
2022/07/21 13:52:32;;;;;;;4.20;3.60;;;;;;;;;;5049031;28;20133;-71
2022/07/21 13:54:58;;;;;;;3.83;3.47;;;;;;;;;;5039397;28;20394;-73
2022/07/21 13:57:24;;;;;;;4.68;4.20;;;;;;;;;;5049901;28;20045;-71
2022/07/21 13:59:50;;;;;;;8.18;4.22;;;;;;;;;;5050513;28;20095;-71
2022/07/21 14:02:16;;;;;;;6.10;4.88;;;;;;;;;;5050727;28;20087;-72
2022/07/21 14:04:43;;;;;;;5.88;4.93;;;;;;;;;;5053175;28;20025;-70
2022/07/21 14:07:13;;;;;;;7.00;5.30;;;;;;;;;;5049673;28;20116;-70
2022/07/21 14:09:39;;;;;;;5.88;5.25;;;;;;;;;;5051281;28;20147;-70
2022/07/21 14:12:05;;;;;;;8.13;5.57;;;;;;;;;;5049482;28;20025;-71
2022/07/21 14:14:31;;;;;;;7.28;5.88;;;;;;;;;;5050084;28;20128;-70
2022/07/21 14:16:57;;;;;;;8.55;6.97;;;;;;;;;;5045926;28;20095;-71
2022/07/21 14:19:23;;;;;;;9.98;6.72;;;;;;;;;;5048171;28;20402;-70
2022/07/21 14:21:49;;;;;;;9.38;6.05;;;;;;;;;;5053760;28;20435;-71
2022/07/21 14:27:00;;;;;;;7.25;6.30;;;;;;;;;;5052344;28;20507;-70